createdAt,value
2023-05-10T00:01:20.866Z,14.30
2023-05-10T00:03:49.019Z,14.30
2023-05-10T00:06:17.224Z,14.10
2023-05-10T00:08:45.448Z,14.10
2023-05-10T00:11:13.603Z,14.00
2023-05-10T00:13:42.698Z,14.00
2023-05-10T00:16:14.109Z,14.10
2023-05-10T00:18:42.373Z,14.00
2023-05-10T00:21:10.346Z,14.00
2023-05-10T00:23:38.458Z,14.00
2023-05-10T00:26:06.532Z,14.10
2023-05-10T00:28:34.649Z,14.10
2023-05-10T00:31:02.650Z,14.10
2023-05-10T00:33:32.003Z,14.10
2023-05-10T00:36:00.011Z,14.00
2023-05-10T00:38:28.125Z,13.90
2023-05-10T00:40:56.420Z,13.90
2023-05-10T00:43:24.393Z,14.00
2023-05-10T00:45:52.737Z,13.90
2023-05-10T00:48:21.191Z,13.90
2023-05-10T00:50:50.558Z,13.90
2023-05-10T00:53:18.880Z,13.90
2023-05-10T00:55:47.407Z,13.90
2023-05-10T00:58:15.447Z,13.90
2023-05-10T01:00:44.514Z,13.80
2023-05-10T01:03:13.008Z,13.70
2023-05-10T01:05:41.063Z,13.70
2023-05-10T01:08:10.650Z,13.70
2023-05-10T01:10:38.629Z,13.70
2023-05-10T01:13:06.697Z,13.70
2023-05-10T01:15:34.971Z,13.60
2023-05-10T01:21:07.282Z,13.60
2023-05-10T01:24:05.406Z,13.50
2023-05-10T01:27:00.341Z,13.50
2023-05-10T01:30:15.509Z,13.60
2023-05-10T01:32:59.747Z,13.50
2023-05-10T01:35:35.069Z,13.50
2023-05-10T01:38:16.658Z,13.60
2023-05-10T01:40:54.720Z,13.60
2023-05-10T01:43:28.480Z,13.60
2023-05-10T01:46:10.305Z,13.60
2023-05-10T01:48:44.560Z,13.70
2023-05-10T01:51:13.529Z,13.60
2023-05-10T01:53:42.106Z,13.60
2023-05-10T01:56:11.904Z,13.50
2023-05-10T01:58:43.239Z,13.50
2023-05-10T02:01:13.150Z,13.60
2023-05-10T02:03:44.996Z,13.30
2023-05-10T02:06:14.990Z,13.50
2023-05-10T02:08:43.736Z,13.50
2023-05-10T02:11:15.200Z,13.50
2023-05-10T02:13:44.540Z,13.40
2023-05-10T02:16:14.091Z,13.40
2023-05-10T02:18:43.852Z,13.40
2023-05-10T02:21:12.937Z,13.30
2023-05-10T02:23:41.595Z,13.30
2023-05-10T02:26:10.823Z,13.30
2023-05-10T02:28:39.789Z,13.30
2023-05-10T02:31:10.825Z,13.30
2023-05-10T02:33:40.879Z,13.20
2023-05-10T02:36:11.797Z,13.20
2023-05-10T02:38:40.892Z,13.20
2023-05-10T02:41:11.985Z,13.10
2023-05-10T02:43:42.000Z,13.10
2023-05-10T02:46:10.069Z,13.10
2023-05-10T02:48:39.262Z,13.10
2023-05-10T02:51:12.096Z,13.00
2023-05-10T02:53:43.157Z,13.10
2023-05-10T02:56:16.277Z,13.10
2023-05-10T02:58:44.478Z,13.00
2023-05-10T03:01:12.530Z,13.00
2023-05-10T03:03:40.581Z,13.00
2023-05-10T03:06:09.343Z,12.90
2023-05-10T03:08:39.273Z,13.00
2023-05-10T03:11:26.168Z,13.00
2023-05-10T03:14:04.595Z,13.00
2023-05-10T03:16:44.759Z,13.10
2023-05-10T03:19:18.441Z,13.10
2023-05-10T03:21:52.351Z,13.20
2023-05-10T03:24:25.103Z,13.20
2023-05-10T03:26:57.737Z,13.20
2023-05-10T03:29:28.174Z,13.20
2023-05-10T03:31:56.320Z,13.20
2023-05-10T03:34:25.938Z,13.20
2023-05-10T03:36:53.911Z,13.10
2023-05-10T03:39:23.344Z,13.00
2023-05-10T03:41:51.332Z,13.10
2023-05-10T03:44:19.580Z,13.30
2023-05-10T03:46:47.521Z,13.10
2023-05-10T03:49:15.479Z,13.00
2023-05-10T03:51:43.661Z,13.10
2023-05-10T03:54:11.691Z,13.10
2023-05-10T03:56:41.027Z,13.10
2023-05-10T03:59:09.821Z,13.10
2023-05-10T04:01:37.867Z,13.20
2023-05-10T04:04:06.125Z,13.20
2023-05-10T04:06:34.177Z,13.30
2023-05-10T04:09:05.091Z,13.20
2023-05-10T04:11:33.070Z,13.10
2023-05-10T04:14:02.592Z,13.10
2023-05-10T04:16:30.646Z,13.10
2023-05-10T04:18:58.726Z,13.20
2023-05-10T04:21:26.804Z,13.10
2023-05-10T04:23:54.789Z,13.20
2023-05-10T04:26:23.099Z,13.20
2023-05-10T04:28:51.088Z,13.20
2023-05-10T04:31:20.682Z,13.20
2023-05-10T04:33:48.840Z,13.20
2023-05-10T04:36:16.836Z,13.20
2023-05-10T04:38:44.859Z,13.10
2023-05-10T04:41:13.438Z,13.00
2023-05-10T04:43:41.812Z,12.90
2023-05-10T04:46:09.855Z,12.90
2023-05-10T04:48:39.270Z,12.90
2023-05-10T04:51:07.602Z,13.00
2023-05-10T04:53:35.641Z,12.90
2023-05-10T04:56:03.566Z,12.90
2023-05-10T04:58:31.527Z,12.90
2023-05-10T05:00:59.567Z,12.90
2023-05-10T05:03:27.750Z,13.00
2023-05-10T05:05:57.100Z,12.90
2023-05-10T05:08:25.073Z,12.90
2023-05-10T05:10:53.121Z,12.90
2023-05-10T05:13:21.268Z,12.90
2023-05-10T05:15:49.333Z,12.90
2023-05-10T05:18:17.340Z,13.00
2023-05-10T05:20:45.523Z,13.00
2023-05-10T05:23:14.930Z,13.00
2023-05-10T05:25:43.042Z,13.00
2023-05-10T05:28:11.123Z,13.10
2023-05-10T05:30:39.292Z,13.10
2023-05-10T05:33:07.387Z,13.20
2023-05-10T05:35:35.637Z,13.20
2023-05-10T05:38:03.640Z,13.20
2023-05-10T05:40:33.240Z,13.20
2023-05-10T05:43:01.211Z,13.20
2023-05-10T05:45:29.350Z,13.20
2023-05-10T05:47:57.397Z,13.20
2023-05-10T05:50:25.626Z,13.20
2023-05-10T05:52:53.679Z,13.10
2023-05-10T05:55:22.426Z,13.10
2023-05-10T05:57:51.820Z,13.20
2023-05-10T06:00:19.989Z,13.00
2023-05-10T06:02:48.077Z,13.00
2023-05-10T06:05:16.610Z,13.00
2023-05-10T06:07:44.785Z,13.00
2023-05-10T06:10:12.816Z,13.00
2023-05-10T06:12:40.816Z,13.10
2023-05-10T06:15:11.860Z,13.20
2023-05-10T06:17:40.163Z,13.20
2023-05-10T06:20:09.700Z,13.20
2023-05-10T06:22:37.700Z,13.30
2023-05-10T06:25:06.982Z,13.30
2023-05-10T06:27:35.405Z,13.30
2023-05-10T06:30:12.237Z,13.30
2023-05-10T06:32:43.003Z,13.40
2023-05-10T06:35:11.511Z,13.40
2023-05-10T06:37:39.492Z,13.50
2023-05-10T06:40:10.323Z,13.50
2023-05-10T06:42:38.913Z,13.60
2023-05-10T06:45:08.102Z,13.60
2023-05-10T06:47:38.805Z,13.60
2023-05-10T06:50:09.960Z,13.60
2023-05-10T06:52:38.035Z,13.60
2023-05-10T06:55:07.113Z,13.60
2023-05-10T06:57:35.246Z,13.70
2023-05-10T07:00:05.165Z,13.80
2023-05-10T07:02:33.300Z,13.80
2023-05-10T07:05:03.257Z,13.70
2023-05-10T07:07:32.959Z,13.70
2023-05-10T07:10:01.421Z,13.70
2023-05-10T07:12:29.473Z,13.70
2023-05-10T07:14:57.423Z,13.70
2023-05-10T07:17:25.540Z,13.80
2023-05-10T07:19:53.622Z,13.70
2023-05-10T07:22:21.652Z,13.70
2023-05-10T07:24:50.982Z,13.80
2023-05-10T07:27:18.962Z,13.70
2023-05-10T07:29:46.920Z,13.70
2023-05-10T07:32:14.949Z,13.60
2023-05-10T07:34:43.938Z,13.60
2023-05-10T07:37:12.453Z,13.70
2023-05-10T07:39:40.562Z,13.80
2023-05-10T07:42:09.924Z,13.80
2023-05-10T07:44:37.881Z,13.80
2023-05-10T07:47:05.952Z,13.90
2023-05-10T07:49:33.962Z,14.00
2023-05-10T07:52:01.968Z,14.10
2023-05-10T07:54:30.000Z,14.10
2023-05-10T07:56:57.975Z,14.10
2023-05-10T07:59:27.258Z,14.10
2023-05-10T08:01:55.259Z,14.10
2023-05-10T08:04:23.333Z,14.20
2023-05-10T08:06:51.473Z,14.40
2023-05-10T08:09:24.665Z,14.40
2023-05-10T08:11:52.713Z,14.50
2023-05-10T08:14:20.802Z,14.60
2023-05-10T08:16:50.305Z,14.70
2023-05-10T08:19:20.095Z,14.80
2023-05-10T08:21:48.097Z,14.80
2023-05-10T08:24:16.204Z,15.00
2023-05-10T08:26:44.150Z,15.00
2023-05-10T08:29:12.112Z,15.10
2023-05-10T08:31:40.050Z,15.10
2023-05-10T08:34:09.419Z,15.20
2023-05-10T08:36:37.379Z,15.30
2023-05-10T08:39:07.718Z,15.30
2023-05-10T08:41:41.568Z,15.20
2023-05-10T08:44:10.382Z,15.30
2023-05-10T08:46:45.019Z,15.40
2023-05-10T08:49:16.983Z,15.50
2023-05-10T08:51:49.210Z,15.50
2023-05-10T08:54:17.755Z,15.40
2023-05-10T08:56:46.898Z,15.40
2023-05-10T08:59:16.932Z,15.60
2023-05-10T09:01:46.758Z,15.70
2023-05-10T09:04:16.378Z,15.70
2023-05-10T09:06:44.615Z,15.60
2023-05-10T09:09:12.566Z,15.60
2023-05-10T09:11:40.760Z,15.70
2023-05-10T09:14:10.436Z,15.80
2023-05-10T09:16:38.457Z,15.90
2023-05-10T09:19:06.522Z,15.90
2023-05-10T09:21:37.740Z,15.90
2023-05-10T09:24:06.794Z,15.80
2023-05-10T09:26:36.456Z,15.80
2023-05-10T09:29:04.915Z,15.90
2023-05-10T09:31:52.218Z,16.00
2023-05-10T09:34:22.112Z,16.10
2023-05-10T09:37:01.898Z,16.10
2023-05-10T09:39:34.202Z,16.20
2023-05-10T09:42:05.289Z,16.40
2023-05-10T09:44:33.806Z,16.40
2023-05-10T09:47:01.960Z,16.50
2023-05-10T09:49:30.624Z,16.40
2023-05-10T09:52:07.300Z,16.40
2023-05-10T09:54:36.001Z,16.20
2023-05-10T09:57:04.343Z,16.10
2023-05-10T09:59:36.224Z,15.80
2023-05-10T10:02:04.753Z,15.30
2023-05-10T10:04:33.155Z,15.00
2023-05-10T10:07:02.619Z,14.90
2023-05-10T10:09:32.446Z,14.70
2023-05-10T10:12:01.060Z,14.50
2023-05-10T10:14:29.320Z,14.50
2023-05-10T10:17:07.414Z,14.40
2023-05-10T10:19:38.056Z,14.40
2023-05-10T10:22:06.938Z,14.40
2023-05-10T10:24:36.455Z,14.60
2023-05-10T10:27:14.612Z,14.80
2023-05-10T10:29:54.584Z,14.80
2023-05-10T10:32:30.061Z,15.00
2023-05-10T10:34:58.554Z,14.90
2023-05-10T10:37:42.977Z,15.10
2023-05-10T10:40:33.594Z,15.20
2023-05-10T10:43:24.237Z,15.30
2023-05-10T10:46:14.613Z,15.40
2023-05-10T10:48:49.152Z,15.70
2023-05-10T10:51:17.596Z,15.80
2023-05-10T10:53:46.017Z,16.10
2023-05-10T10:56:16.606Z,16.10
2023-05-10T10:58:52.143Z,16.10
2023-05-10T11:01:21.494Z,16.30
2023-05-10T11:04:21.685Z,16.30
2023-05-10T11:06:49.882Z,16.20
2023-05-10T11:09:19.598Z,16.10
2023-05-10T11:11:56.079Z,15.90
2023-05-10T11:14:24.829Z,15.70
2023-05-10T11:16:53.214Z,15.60
2023-05-10T11:19:21.920Z,15.40
2023-05-10T11:21:51.672Z,15.20
2023-05-10T11:24:21.994Z,15.20
2023-05-10T11:26:53.204Z,15.10
2023-05-10T11:29:21.439Z,15.00
2023-05-10T11:31:50.209Z,14.90
2023-05-10T11:34:26.582Z,14.90
2023-05-10T11:36:56.024Z,14.90
2023-05-10T11:39:27.794Z,14.80
2023-05-10T11:41:57.827Z,14.80
2023-05-10T11:44:26.578Z,14.80
2023-05-10T11:46:54.701Z,14.80
2023-05-10T11:49:26.034Z,14.90
2023-05-10T11:51:54.089Z,14.80
2023-05-10T11:54:21.981Z,14.60
2023-05-10T11:56:49.978Z,14.40
2023-05-10T11:59:19.361Z,14.50
2023-05-10T12:01:47.477Z,14.60
2023-05-10T12:04:16.126Z,14.70
2023-05-10T12:06:44.476Z,14.80
2023-05-10T12:09:12.561Z,14.90
2023-05-10T12:11:44.275Z,15.10
2023-05-10T12:14:12.962Z,15.10
2023-05-10T12:16:42.844Z,15.10
2023-05-10T12:19:12.189Z,15.10
2023-05-10T12:21:42.495Z,15.00
2023-05-10T12:24:11.733Z,14.90
2023-05-10T12:26:40.428Z,15.00
2023-05-10T12:29:16.728Z,15.00
2023-05-10T12:31:57.547Z,14.90
2023-05-10T12:34:27.415Z,14.90
2023-05-10T12:36:55.959Z,14.80
2023-05-10T12:39:23.935Z,14.60
2023-05-10T12:41:53.348Z,14.60
2023-05-10T12:44:22.469Z,14.40
2023-05-10T12:46:50.476Z,14.50
2023-05-10T12:49:20.659Z,14.40
2023-05-10T12:51:48.632Z,14.40
2023-05-10T12:54:24.558Z,14.60
2023-05-10T12:56:52.464Z,14.80
2023-05-10T12:59:20.481Z,14.90
2023-05-10T13:01:48.457Z,14.90
2023-05-10T13:04:16.458Z,14.90
2023-05-10T13:06:45.848Z,15.10
2023-05-10T13:09:13.854Z,15.30
2023-05-10T13:11:41.974Z,15.50
2023-05-10T13:14:09.945Z,15.40
2023-05-10T13:16:38.004Z,15.50
2023-05-10T13:19:06.168Z,15.70
2023-05-10T13:21:34.267Z,15.70
2023-05-10T13:24:03.707Z,15.50
2023-05-10T13:26:31.915Z,15.40
2023-05-10T13:29:00.143Z,15.40
2023-05-10T13:31:28.630Z,15.40
2023-05-10T13:33:57.883Z,15.70
2023-05-10T13:36:26.185Z,15.60
2023-05-10T13:38:54.323Z,15.60
2023-05-10T13:41:24.396Z,15.70
2023-05-10T13:43:52.411Z,15.70
2023-05-10T13:46:20.701Z,15.90
2023-05-10T13:48:48.764Z,15.90
2023-05-10T13:51:17.051Z,15.80
2023-05-10T13:53:45.344Z,15.80
2023-05-10T13:56:13.805Z,15.60
2023-05-10T13:58:43.551Z,15.60
2023-05-10T14:01:13.042Z,15.80
2023-05-10T14:03:41.468Z,15.90
2023-05-10T14:06:10.304Z,16.00
2023-05-10T14:08:38.551Z,16.10
2023-05-10T14:11:06.997Z,16.00
2023-05-10T14:13:35.208Z,16.00
2023-05-10T14:16:04.819Z,16.10
2023-05-10T14:18:33.019Z,16.20
2023-05-10T14:21:01.254Z,16.20
2023-05-10T14:23:29.918Z,16.40
2023-05-10T14:25:58.435Z,16.40
2023-05-10T14:28:26.825Z,16.40
2023-05-10T14:30:54.918Z,16.30
2023-05-10T14:33:24.370Z,16.50
2023-05-10T14:35:52.494Z,16.50
2023-05-10T14:38:20.758Z,16.50
2023-05-10T14:40:48.790Z,16.40
2023-05-10T14:43:16.926Z,16.70
2023-05-10T14:45:46.416Z,16.70
2023-05-10T14:48:16.519Z,16.70
2023-05-10T14:50:47.258Z,16.80
2023-05-10T14:53:15.421Z,16.70
2023-05-10T14:55:44.684Z,16.70
2023-05-10T14:58:12.853Z,16.70
2023-05-10T15:00:41.282Z,16.70
2023-05-10T15:03:10.040Z,16.70
2023-05-10T15:05:38.794Z,16.60
2023-05-10T15:08:08.485Z,16.70
2023-05-10T15:10:37.763Z,16.60
2023-05-10T15:13:06.256Z,16.60
2023-05-10T15:15:34.365Z,16.60
2023-05-10T15:18:02.591Z,16.50
2023-05-10T15:20:30.601Z,16.40
2023-05-10T15:22:58.654Z,16.40
2023-05-10T15:25:28.749Z,16.40
2023-05-10T15:27:56.910Z,16.40
2023-05-10T15:30:24.897Z,16.40
2023-05-10T15:32:53.184Z,16.40
2023-05-10T15:35:21.395Z,16.40
2023-05-10T15:37:50.382Z,16.40
2023-05-10T15:40:18.615Z,16.40
2023-05-10T15:42:47.969Z,16.30
2023-05-10T15:45:16.510Z,16.30
2023-05-10T15:47:45.706Z,16.40
2023-05-10T15:50:13.992Z,16.50
2023-05-10T15:52:42.289Z,16.50
2023-05-10T15:55:13.187Z,16.50
2023-05-10T15:57:42.573Z,16.40
2023-05-10T16:00:13.913Z,16.40
2023-05-10T16:02:42.732Z,16.40
2023-05-10T16:05:12.872Z,16.30
2023-05-10T16:07:41.995Z,16.30
2023-05-10T16:10:11.905Z,16.00
2023-05-10T16:12:40.515Z,15.80
2023-05-10T16:15:12.236Z,15.70
2023-05-10T16:17:40.388Z,15.60
2023-05-10T16:20:09.992Z,15.60
2023-05-10T16:22:38.089Z,15.40
2023-05-10T16:25:07.446Z,15.40
2023-05-10T16:27:35.503Z,15.30
2023-05-10T16:30:04.061Z,15.20
2023-05-10T16:32:34.133Z,15.30
2023-05-10T16:35:02.323Z,15.20
2023-05-10T16:37:30.506Z,15.30
2023-05-10T16:39:58.683Z,15.30
2023-05-10T16:42:26.721Z,15.30
2023-05-10T16:44:55.659Z,15.30
2023-05-10T16:47:26.723Z,15.40
2023-05-10T16:49:56.297Z,15.10
2023-05-10T16:52:24.672Z,15.50
2023-05-10T16:54:52.725Z,15.30
2023-05-10T16:57:20.838Z,15.30
2023-05-10T16:59:48.884Z,15.20
2023-05-10T17:02:17.458Z,15.20
2023-05-10T17:04:45.470Z,15.10
2023-05-10T17:07:15.584Z,15.00
2023-05-10T17:09:44.320Z,15.00
2023-05-10T17:12:12.440Z,15.00
2023-05-10T17:14:40.990Z,15.00
2023-05-10T17:17:09.827Z,14.90
2023-05-10T17:19:38.096Z,14.80
2023-05-10T17:22:06.387Z,14.80
2023-05-10T17:24:36.092Z,14.70
2023-05-10T17:27:04.541Z,14.70
2023-05-10T17:29:32.950Z,14.60
2023-05-10T17:32:01.138Z,14.50
2023-05-10T17:34:29.291Z,14.40
2023-05-10T17:36:57.476Z,14.50
2023-05-10T17:39:25.706Z,14.40
2023-05-10T17:41:55.137Z,14.50
2023-05-10T17:44:23.138Z,14.40
2023-05-10T17:46:51.187Z,14.40
2023-05-10T17:49:19.982Z,14.30
2023-05-10T17:51:48.516Z,14.30
2023-05-10T17:54:16.835Z,14.50
2023-05-10T17:56:45.453Z,14.40
2023-05-10T17:59:15.298Z,14.40
2023-05-10T18:01:43.495Z,14.40
2023-05-10T18:04:11.713Z,14.40
2023-05-10T18:06:40.010Z,14.40
2023-05-10T18:09:08.478Z,14.50
2023-05-10T18:11:38.113Z,14.60
2023-05-10T18:14:06.320Z,14.50
2023-05-10T18:16:35.971Z,14.50
2023-05-10T18:19:04.476Z,14.50
2023-05-10T18:21:32.755Z,14.50
2023-05-10T18:24:00.901Z,14.50
2023-05-10T18:26:29.169Z,14.40
2023-05-10T18:28:59.986Z,14.40
2023-05-10T18:31:32.877Z,14.40
2023-05-10T18:34:02.709Z,14.40
2023-05-10T18:36:30.914Z,14.40
2023-05-10T18:38:59.197Z,14.30
2023-05-10T18:41:27.642Z,14.30
2023-05-10T18:43:55.828Z,14.20
2023-05-10T18:46:24.250Z,14.10
2023-05-10T18:48:52.337Z,14.00
2023-05-10T18:51:22.301Z,13.90
2023-05-10T18:53:50.482Z,14.20
2023-05-10T18:56:18.700Z,13.80
2023-05-10T18:58:46.749Z,13.70
2023-05-10T19:01:14.881Z,13.70
2023-05-10T19:03:42.973Z,13.70
2023-05-10T19:06:11.213Z,13.80
2023-05-10T19:08:40.725Z,13.60
2023-05-10T19:11:08.822Z,13.50
2023-05-10T19:13:37.196Z,13.50
2023-05-10T19:16:06.542Z,13.50
2023-05-10T19:18:34.879Z,13.50
2023-05-10T19:21:04.713Z,13.40
2023-05-10T19:23:33.738Z,13.30
2023-05-10T19:26:03.366Z,13.30
2023-05-10T19:28:31.757Z,13.40
2023-05-10T19:30:59.819Z,13.60
2023-05-10T19:33:28.072Z,13.40
2023-05-10T19:35:56.481Z,13.40
2023-05-10T19:38:25.627Z,13.40
2023-05-10T19:40:58.105Z,13.30
2023-05-10T19:43:27.943Z,13.30
2023-05-10T19:45:56.472Z,13.30
2023-05-10T19:48:24.510Z,13.40
2023-05-10T19:50:52.634Z,13.40
2023-05-10T19:53:21.091Z,13.30
2023-05-10T19:55:49.149Z,13.40
2023-05-10T19:58:17.867Z,13.30
2023-05-10T20:00:47.370Z,13.30
2023-05-10T20:03:15.619Z,13.40
2023-05-10T20:05:43.782Z,13.30
2023-05-10T20:08:11.907Z,13.30
2023-05-10T20:10:39.994Z,13.30
2023-05-10T20:13:08.283Z,13.20
2023-05-10T20:15:36.279Z,13.20
2023-05-10T20:18:05.843Z,13.20
2023-05-10T20:20:33.920Z,13.20
2023-05-10T20:23:01.993Z,13.20
2023-05-10T20:25:30.310Z,13.20
2023-05-10T20:27:58.431Z,13.10
2023-05-10T20:30:26.849Z,13.10
2023-05-10T20:32:54.934Z,13.00
2023-05-10T20:35:24.356Z,13.10
2023-05-10T20:37:52.357Z,12.90
2023-05-10T20:40:20.470Z,12.90
2023-05-10T20:42:49.598Z,12.80
2023-05-10T20:45:17.728Z,12.80
2023-05-10T20:47:45.902Z,12.90
2023-05-10T20:50:13.927Z,13.00
2023-05-10T20:52:43.317Z,13.00
2023-05-10T20:55:11.727Z,12.90
2023-05-10T20:57:39.766Z,13.00
2023-05-10T21:00:09.439Z,12.90
2023-05-10T21:02:37.710Z,12.80
2023-05-10T21:05:06.778Z,12.90
2023-05-10T21:07:34.945Z,12.90
2023-05-10T21:10:04.777Z,13.00
2023-05-10T21:12:33.574Z,12.90
2023-05-10T21:15:01.568Z,12.90
2023-05-10T21:17:29.876Z,12.80
2023-05-10T21:19:58.167Z,12.70
2023-05-10T21:22:26.286Z,12.60
2023-05-10T21:24:54.341Z,12.60
2023-05-10T21:27:23.896Z,12.70
2023-05-10T21:29:52.232Z,12.70
2023-05-10T21:32:20.368Z,12.60
2023-05-10T21:34:48.678Z,12.60
2023-05-10T21:37:17.371Z,12.50
2023-05-10T21:39:45.608Z,12.50
2023-05-10T21:42:13.844Z,12.50
2023-05-10T21:44:43.631Z,12.50
2023-05-10T21:47:11.611Z,12.50
2023-05-10T21:49:39.597Z,12.50
2023-05-10T21:52:07.604Z,12.50
2023-05-10T21:54:37.427Z,12.40
2023-05-10T21:57:05.635Z,12.50
2023-05-10T21:59:33.650Z,12.50
2023-05-10T22:02:03.638Z,12.50
2023-05-10T22:04:31.762Z,12.50
2023-05-10T22:06:59.755Z,12.40
2023-05-10T22:09:27.761Z,12.30
2023-05-10T22:11:55.785Z,12.20
2023-05-10T22:14:24.066Z,12.30
2023-05-10T22:16:52.156Z,12.40
2023-05-10T22:19:21.620Z,12.50
2023-05-10T22:21:49.636Z,12.70
2023-05-10T22:24:17.614Z,12.40
2023-05-10T22:26:45.768Z,12.40
2023-05-10T22:29:13.837Z,12.40
2023-05-10T22:31:41.868Z,12.40
2023-05-10T22:34:09.933Z,12.30
2023-05-10T22:36:39.303Z,12.40
2023-05-10T22:39:07.530Z,12.30
2023-05-10T22:41:35.581Z,12.30
2023-05-10T22:44:04.951Z,12.30
2023-05-10T22:46:33.320Z,12.20
2023-05-10T22:49:01.424Z,12.20
2023-05-10T22:51:29.652Z,12.20
2023-05-10T22:53:58.991Z,12.30
2023-05-10T22:56:27.072Z,12.40
2023-05-10T22:58:55.262Z,12.40
2023-05-10T23:01:23.273Z,12.50
2023-05-10T23:03:51.817Z,12.50
2023-05-10T23:06:19.760Z,12.40
2023-05-10T23:08:48.214Z,12.20
2023-05-10T23:11:17.547Z,12.20
2023-05-10T23:13:45.733Z,12.10
2023-05-10T23:16:13.777Z,12.20
2023-05-10T23:18:41.921Z,12.20
2023-05-10T23:21:09.901Z,12.20
2023-05-10T23:23:37.964Z,12.10
2023-05-10T23:26:06.166Z,12.20
2023-05-10T23:28:35.597Z,12.20
2023-05-10T23:31:03.574Z,12.30
2023-05-10T23:33:31.630Z,12.20
2023-05-10T23:35:59.749Z,12.10
2023-05-10T23:38:27.771Z,12.00
2023-05-10T23:40:55.875Z,11.90
2023-05-10T23:43:25.407Z,11.90
2023-05-10T23:45:55.868Z,11.80
2023-05-10T23:48:24.274Z,11.70
2023-05-10T23:50:52.281Z,11.80
2023-05-10T23:53:20.582Z,11.80
2023-05-10T23:55:48.691Z,11.80
2023-05-10T23:58:16.735Z,11.70
